createdAt,value
2018-03-23T00:01:32.890Z,99.90
2018-03-23T00:04:01.981Z,99.90
2018-03-23T00:06:31.088Z,99.90
2018-03-23T00:09:00.220Z,99.90
2018-03-23T00:11:28.528Z,99.90
2018-03-23T00:13:56.846Z,99.90
2018-03-23T00:16:25.204Z,99.90
2018-03-23T00:18:53.508Z,99.90
2018-03-23T00:21:22.602Z,99.90
2018-03-23T00:23:50.918Z,99.90
2018-03-23T00:26:19.244Z,99.90
2018-03-23T00:28:47.556Z,99.90
2018-03-23T00:31:15.870Z,99.90
2018-03-23T00:33:44.194Z,99.90
2018-03-23T00:36:12.516Z,99.90
2018-03-23T00:38:41.590Z,99.90
2018-03-23T00:41:09.916Z,99.90
2018-03-23T00:43:38.318Z,99.90
2018-03-23T00:46:06.624Z,99.90
2018-03-23T00:48:34.954Z,99.90
2018-03-23T00:51:03.311Z,99.90
2018-03-23T00:53:32.387Z,99.90
2018-03-23T00:56:00.708Z,99.90
2018-03-23T00:58:29.812Z,99.90
2018-03-23T01:00:58.172Z,99.90
2018-03-23T01:03:26.490Z,99.90
2018-03-23T01:05:54.812Z,99.90
2018-03-23T01:08:23.128Z,99.90
2018-03-23T01:10:52.337Z,99.90
2018-03-23T01:13:21.425Z,99.90
2018-03-23T01:15:49.740Z,99.90
2018-03-23T01:18:18.053Z,99.90
2018-03-23T01:20:46.390Z,99.90
2018-03-23T01:23:15.486Z,99.90
2018-03-23T01:25:44.576Z,99.90
2018-03-23T01:28:12.892Z,99.90
2018-03-23T01:30:42.058Z,99.90
2018-03-23T01:33:11.146Z,99.90
2018-03-23T01:35:39.460Z,99.90
2018-03-23T01:38:07.810Z,99.90
2018-03-23T01:40:36.145Z,99.90
2018-03-23T01:43:04.484Z,99.90
2018-03-23T01:45:32.793Z,99.90
2018-03-23T01:48:01.105Z,99.90
2018-03-23T01:50:29.422Z,99.90
2018-03-23T01:52:57.738Z,99.90
2018-03-23T01:55:26.071Z,99.90
2018-03-23T01:57:54.423Z,99.90
2018-03-23T02:00:22.738Z,99.90
2018-03-23T02:02:51.106Z,99.90
2018-03-23T02:05:19.619Z,99.90
2018-03-23T02:07:48.712Z,99.90
2018-03-23T02:10:17.105Z,99.90
2018-03-23T02:12:46.230Z,99.90
2018-03-23T02:15:15.340Z,99.90
2018-03-23T02:17:43.670Z,99.90
2018-03-23T02:20:11.975Z,99.90
2018-03-23T02:22:40.304Z,99.90
2018-03-23T02:25:08.619Z,99.90
2018-03-23T02:27:36.937Z,99.90
2018-03-23T02:30:06.029Z,99.90
2018-03-23T02:32:34.366Z,99.90
2018-03-23T02:35:02.697Z,99.90
2018-03-23T02:37:31.781Z,99.90
2018-03-23T02:40:00.110Z,99.90
2018-03-23T02:42:28.452Z,99.90
2018-03-23T02:44:57.634Z,99.90
2018-03-23T02:47:25.975Z,99.90
2018-03-23T02:49:54.320Z,99.90
2018-03-23T02:52:22.632Z,99.90
2018-03-23T02:54:50.999Z,99.90
2018-03-23T02:57:20.683Z,99.90
2018-03-23T02:59:49.026Z,99.90
2018-03-23T03:02:17.352Z,99.90
2018-03-23T03:04:45.664Z,99.90
2018-03-23T03:07:14.021Z,99.90
2018-03-23T03:09:42.446Z,99.90
2018-03-23T03:12:10.773Z,99.90
2018-03-23T03:14:39.106Z,99.90
2018-03-23T03:17:07.471Z,99.90
2018-03-23T03:19:36.622Z,99.90
2018-03-23T03:22:04.948Z,99.90
2018-03-23T03:24:34.046Z,99.90
2018-03-23T03:27:02.470Z,99.90
2018-03-23T03:29:30.787Z,99.90
2018-03-23T03:31:59.107Z,99.90
2018-03-23T03:34:28.208Z,99.90
2018-03-23T03:36:56.579Z,99.90
2018-03-23T03:39:25.706Z,99.90
2018-03-23T03:41:54.030Z,99.90
2018-03-23T03:44:22.395Z,99.90
2018-03-23T03:46:50.701Z,99.90
2018-03-23T03:49:19.021Z,99.90
2018-03-23T03:51:48.087Z,99.90
2018-03-23T03:54:16.427Z,99.90
2018-03-23T03:56:44.745Z,99.90
2018-03-23T03:59:13.068Z,99.90
2018-03-23T04:01:42.150Z,99.90
2018-03-23T04:04:10.470Z,99.90
2018-03-23T04:06:39.535Z,99.90
2018-03-23T04:09:07.857Z,99.90
2018-03-23T04:11:36.167Z,99.90
2018-03-23T04:14:04.494Z,99.90
2018-03-23T04:16:33.590Z,99.90
2018-03-23T04:19:02.679Z,99.90
2018-03-23T04:21:31.029Z,99.90
2018-03-23T04:23:59.395Z,99.90
2018-03-23T04:26:27.703Z,99.90
2018-03-23T04:28:56.093Z,99.90
2018-03-23T04:31:24.393Z,99.90
2018-03-23T04:33:52.725Z,99.90
2018-03-23T04:36:21.070Z,99.90
2018-03-23T04:38:50.137Z,99.90
2018-03-23T04:41:18.533Z,99.90
2018-03-23T04:43:46.839Z,99.90
2018-03-23T04:46:15.172Z,99.90
2018-03-23T04:48:43.532Z,99.90
2018-03-23T04:51:11.846Z,99.90
2018-03-23T04:53:40.192Z,99.90
2018-03-23T04:56:08.548Z,99.90
2018-03-23T04:58:36.905Z,99.90
2018-03-23T05:01:05.208Z,99.90
2018-03-23T05:03:34.306Z,99.90
2018-03-23T05:06:03.403Z,99.90
2018-03-23T05:08:32.471Z,99.90
2018-03-23T05:11:00.808Z,99.90
2018-03-23T05:13:29.112Z,99.90
2018-03-23T05:15:57.462Z,99.90
2018-03-23T05:18:26.563Z,99.90
2018-03-23T05:20:55.651Z,99.90
2018-03-23T05:23:24.747Z,99.90
2018-03-23T05:25:53.058Z,99.90
2018-03-23T05:28:21.449Z,99.90
2018-03-23T05:30:49.777Z,99.90
2018-03-23T05:33:18.903Z,99.90
2018-03-23T05:35:48.005Z,99.90
2018-03-23T05:38:17.109Z,99.90
2018-03-23T05:40:46.307Z,99.90
2018-03-23T05:43:15.387Z,99.90
2018-03-23T05:45:44.483Z,99.90
2018-03-23T05:48:12.785Z,99.90
2018-03-23T05:50:41.877Z,99.90
2018-03-23T05:53:10.993Z,99.90
2018-03-23T05:55:39.337Z,99.90
2018-03-23T05:58:07.644Z,99.90
2018-03-23T06:00:36.741Z,99.90
2018-03-23T06:03:05.828Z,99.90
2018-03-23T06:05:34.141Z,99.90
2018-03-23T06:08:03.223Z,99.90
2018-03-23T06:10:32.307Z,99.90
2018-03-23T06:13:00.635Z,99.90
2018-03-23T06:15:28.937Z,99.90
2018-03-23T06:17:57.275Z,99.90
2018-03-23T06:20:26.402Z,99.90
2018-03-23T06:22:54.819Z,99.90
2018-03-23T06:25:23.095Z,99.90
2018-03-23T06:27:52.072Z,99.90
2018-03-23T06:30:20.385Z,99.90
2018-03-23T06:32:48.703Z,99.90
2018-03-23T06:35:17.781Z,99.90
2018-03-23T06:37:46.099Z,99.90
2018-03-23T06:40:14.420Z,99.90
2018-03-23T06:42:42.733Z,99.90
2018-03-23T06:45:11.067Z,99.90
2018-03-23T06:47:39.385Z,99.90
2018-03-23T06:50:07.727Z,99.90
2018-03-23T06:52:36.047Z,99.90
2018-03-23T06:55:04.355Z,99.90
2018-03-23T06:57:33.469Z,99.90
2018-03-23T07:00:02.564Z,99.90
2018-03-23T07:02:30.905Z,99.90
2018-03-23T07:04:59.245Z,99.90
2018-03-23T07:07:27.558Z,99.90
2018-03-23T07:09:55.894Z,99.90
2018-03-23T07:12:25.051Z,99.90
2018-03-23T07:14:53.378Z,99.90
2018-03-23T07:17:21.723Z,99.90
2018-03-23T07:19:50.059Z,99.90
2018-03-23T07:22:18.391Z,99.90
2018-03-23T07:24:46.709Z,99.90
2018-03-23T07:27:15.041Z,99.90
2018-03-23T07:29:43.349Z,99.90
2018-03-23T07:32:11.719Z,99.90
2018-03-23T07:34:40.054Z,99.90
2018-03-23T07:37:08.386Z,99.90
2018-03-23T07:39:36.789Z,99.90
2018-03-23T07:42:05.155Z,99.90
2018-03-23T07:44:33.481Z,99.90
2018-03-23T07:47:01.793Z,99.90
2018-03-23T07:49:30.109Z,99.90
2018-03-23T07:51:58.438Z,99.90
2018-03-23T07:54:26.748Z,99.90
2018-03-23T07:56:55.079Z,99.90
2018-03-23T07:59:24.152Z,99.90
2018-03-23T08:01:53.348Z,99.90
2018-03-23T08:04:21.661Z,99.90
2018-03-23T08:06:50.775Z,99.90
2018-03-23T08:09:19.849Z,99.90
2018-03-23T08:11:48.161Z,99.90
2018-03-23T08:14:16.477Z,99.90
2018-03-23T08:16:44.804Z,99.90
2018-03-23T08:19:13.131Z,99.90
2018-03-23T08:21:41.447Z,99.90
2018-03-23T08:24:09.787Z,99.00
2018-03-23T08:26:38.107Z,98.10
2018-03-23T08:29:06.418Z,97.30
2018-03-23T08:31:35.506Z,96.60
2018-03-23T08:34:04.671Z,96.20
2018-03-23T08:36:33.003Z,96.20
2018-03-23T08:39:02.083Z,95.40
2018-03-23T08:41:31.231Z,95.40
2018-03-23T08:43:59.564Z,95.40
2018-03-23T08:46:27.889Z,95.00
2018-03-23T08:48:56.212Z,94.30
2018-03-23T08:51:24.557Z,93.90
2018-03-23T08:53:52.878Z,93.70
2018-03-23T08:56:21.203Z,93.00
2018-03-23T08:58:49.549Z,93.10
2018-03-23T09:01:17.889Z,92.20
2018-03-23T09:03:46.247Z,92.10
2018-03-23T09:06:15.333Z,89.90
2018-03-23T09:08:43.684Z,89.70
2018-03-23T09:11:12.054Z,87.80
2018-03-23T09:13:40.366Z,85.80
2018-03-23T09:16:08.767Z,80.20
2018-03-23T09:18:37.847Z,70.20
2018-03-23T09:21:06.161Z,70.80
2018-03-23T09:23:35.269Z,67.60
2018-03-23T09:26:04.351Z,65.40
2018-03-23T09:28:33.448Z,64.90
2018-03-23T09:31:02.549Z,63.70
2018-03-23T09:33:31.631Z,61.40
2018-03-23T09:35:59.950Z,61.30
2018-03-23T09:38:28.287Z,61.20
2018-03-23T09:40:56.641Z,59.20
2018-03-23T09:43:24.971Z,58.10
2018-03-23T09:45:53.305Z,57.00
2018-03-23T09:48:21.654Z,56.30
2018-03-23T09:50:49.972Z,56.50
2018-03-23T09:53:18.272Z,55.90
2018-03-23T09:55:46.609Z,54.00
2018-03-23T09:58:14.941Z,53.80
2018-03-23T10:00:43.276Z,53.60
2018-03-23T10:03:11.626Z,53.60
2018-03-23T10:05:40.017Z,53.20
2018-03-23T10:08:09.112Z,53.30
2018-03-23T10:10:38.215Z,52.50
2018-03-23T10:13:06.538Z,52.40
2018-03-23T10:15:34.875Z,52.00
2018-03-23T10:18:03.193Z,51.70
2018-03-23T10:20:31.525Z,52.40
2018-03-23T10:22:59.823Z,51.30
2018-03-23T10:25:28.148Z,51.30
2018-03-23T10:27:56.493Z,50.70
2018-03-23T10:30:25.598Z,50.50
2018-03-23T10:32:54.675Z,50.60
2018-03-23T10:35:23.048Z,50.50
2018-03-23T10:37:51.363Z,49.80
2018-03-23T10:40:20.472Z,50.90
2018-03-23T10:42:48.789Z,50.30
2018-03-23T10:45:17.116Z,50.70
2018-03-23T10:47:45.438Z,50.80
2018-03-23T10:50:13.747Z,51.00
2018-03-23T10:52:42.146Z,51.20
2018-03-23T10:55:10.475Z,51.90
2018-03-23T10:57:38.802Z,51.10
2018-03-23T11:00:07.150Z,51.10
2018-03-23T11:02:49.972Z,51.00
2018-03-23T11:05:18.282Z,50.80
2018-03-23T11:07:47.581Z,50.80
2018-03-23T11:10:15.901Z,50.80
2018-03-23T11:12:44.986Z,51.50
2018-03-23T11:15:13.313Z,50.90
2018-03-23T11:17:41.642Z,50.70
2018-03-23T11:20:10.033Z,50.80
2018-03-23T11:22:38.368Z,50.40
2018-03-23T11:25:06.702Z,50.30
2018-03-23T11:27:35.018Z,50.20
2018-03-23T11:30:03.356Z,51.00
2018-03-23T11:32:32.420Z,51.40
2018-03-23T11:35:00.745Z,51.00
2018-03-23T11:37:29.822Z,51.40
2018-03-23T11:39:58.137Z,50.90
2018-03-23T11:42:27.376Z,51.10
2018-03-23T11:44:55.698Z,50.50
2018-03-23T11:47:24.008Z,49.60
2018-03-23T11:49:53.106Z,50.50
2018-03-23T11:52:21.424Z,50.10
2018-03-23T11:54:49.733Z,49.30
2018-03-23T11:57:18.054Z,49.80
2018-03-23T11:59:47.136Z,50.10
2018-03-23T12:02:16.314Z,50.10
2018-03-23T12:04:44.649Z,50.10
2018-03-23T12:07:13.731Z,50.60
2018-03-23T12:09:42.059Z,50.50
2018-03-23T12:12:10.364Z,50.40
2018-03-23T12:14:38.698Z,50.80
2018-03-23T12:17:07.032Z,50.30
2018-03-23T12:19:35.368Z,50.40
2018-03-23T12:22:03.716Z,49.90
2018-03-23T12:24:32.034Z,50.10
2018-03-23T12:27:00.372Z,49.50
2018-03-23T12:29:28.712Z,49.60
2018-03-23T12:31:57.061Z,49.20
2018-03-23T12:34:26.144Z,48.20
2018-03-23T12:36:54.474Z,48.20
2018-03-23T12:39:22.822Z,47.90
2018-03-23T12:41:51.156Z,48.70
2018-03-23T12:44:19.469Z,48.80
2018-03-23T12:46:47.787Z,49.60
2018-03-23T12:49:16.872Z,50.50
2018-03-23T12:51:46.060Z,51.40
2018-03-23T12:54:14.542Z,51.40
2018-03-23T12:56:42.863Z,52.30
2018-03-23T12:59:11.213Z,52.40
2018-03-23T13:01:39.610Z,52.60
2018-03-23T13:04:09.398Z,53.20
2018-03-23T13:06:37.725Z,53.20
2018-03-23T13:09:06.063Z,53.40
2018-03-23T13:11:34.545Z,53.50
2018-03-23T13:14:02.862Z,54.00
2018-03-23T13:16:31.956Z,55.00
2018-03-23T13:19:01.062Z,55.20
2018-03-23T13:21:29.454Z,55.10
2018-03-23T13:23:57.830Z,55.40
2018-03-23T13:26:26.924Z,55.60
2018-03-23T13:28:56.107Z,56.70
2018-03-23T13:31:24.463Z,56.00
2018-03-23T13:33:52.867Z,56.00
2018-03-23T13:36:21.186Z,56.30
2018-03-23T13:38:50.250Z,57.30
2018-03-23T13:41:18.567Z,57.20
2018-03-23T13:43:47.690Z,57.90
2018-03-23T13:46:16.075Z,57.80
2018-03-23T13:48:44.388Z,58.30
2018-03-23T13:51:12.717Z,59.10
2018-03-23T13:53:41.810Z,60.10
2018-03-23T13:56:10.962Z,60.00
2018-03-23T13:58:44.671Z,60.00
2018-03-23T14:01:19.016Z,60.50
2018-03-23T14:03:47.328Z,60.50
2018-03-23T14:06:15.648Z,61.00
2018-03-23T14:08:43.975Z,60.80
2018-03-23T14:11:13.063Z,61.60
2018-03-23T14:13:41.423Z,61.60
2018-03-23T14:16:09.759Z,62.00
2018-03-23T14:18:38.080Z,62.80
2018-03-23T14:21:06.394Z,62.60
2018-03-23T14:23:35.471Z,64.00
2018-03-23T14:26:03.810Z,63.90
2018-03-23T14:28:32.235Z,64.40
2018-03-23T14:31:00.487Z,65.20
2018-03-23T14:33:28.821Z,65.70
2018-03-23T14:35:57.136Z,66.70
2018-03-23T14:38:25.449Z,66.90
2018-03-23T14:40:53.781Z,67.10
2018-03-23T14:43:22.855Z,68.10
2018-03-23T14:45:51.173Z,68.00
2018-03-23T14:48:20.265Z,69.20
2018-03-23T14:50:49.383Z,69.60
2018-03-23T14:53:17.701Z,69.60
2018-03-23T14:55:46.042Z,70.40
2018-03-23T14:58:15.122Z,71.80
2018-03-23T15:00:44.298Z,71.80
2018-03-23T15:03:12.644Z,72.30
2018-03-23T15:05:40.955Z,72.90
2018-03-23T15:08:09.274Z,73.40
2018-03-23T15:10:38.463Z,74.10
2018-03-23T15:13:06.741Z,73.90
2018-03-23T15:15:35.071Z,74.10
2018-03-23T15:18:03.443Z,74.20
2018-03-23T15:20:31.810Z,74.60
2018-03-23T15:23:00.911Z,76.10
2018-03-23T15:25:30.015Z,77.10
2018-03-23T15:27:58.379Z,77.00
2018-03-23T15:30:26.697Z,78.80
2018-03-23T15:32:55.010Z,78.40
2018-03-23T15:35:24.090Z,78.10
2018-03-23T15:37:52.408Z,77.80
2018-03-23T15:40:20.803Z,77.90
2018-03-23T15:42:49.131Z,78.50
2018-03-23T15:45:17.455Z,79.60
2018-03-23T15:47:45.787Z,80.20
2018-03-23T15:50:14.120Z,80.40
2018-03-23T15:52:42.589Z,81.10
2018-03-23T15:55:10.927Z,82.00
2018-03-23T15:57:40.065Z,82.60
2018-03-23T16:00:08.480Z,82.60
2018-03-23T16:02:36.852Z,83.10
2018-03-23T16:05:05.309Z,83.40
2018-03-23T16:07:33.647Z,83.50
2018-03-23T16:10:01.965Z,84.10
2018-03-23T16:12:30.313Z,84.60
2018-03-23T16:14:58.643Z,85.70
2018-03-23T16:17:26.971Z,86.00
2018-03-23T16:19:55.316Z,86.70
2018-03-23T16:22:23.754Z,87.60
2018-03-23T16:24:52.843Z,88.90
2018-03-23T16:27:21.213Z,88.90
2018-03-23T16:29:49.553Z,89.30
2018-03-23T16:32:17.948Z,89.30
2018-03-23T16:34:46.277Z,89.60
2018-03-23T16:37:15.365Z,90.10
2018-03-23T16:39:43.695Z,90.10
2018-03-23T16:42:11.997Z,90.20
2018-03-23T16:44:40.350Z,90.30
2018-03-23T16:47:08.677Z,90.50
2018-03-23T16:49:37.018Z,90.80
2018-03-23T16:52:05.431Z,90.90
2018-03-23T16:54:33.836Z,91.20
2018-03-23T16:57:02.192Z,92.10
2018-03-23T16:59:30.537Z,92.40
2018-03-23T17:01:58.941Z,92.80
2018-03-23T17:04:27.984Z,93.50
2018-03-23T17:06:56.332Z,93.40
2018-03-23T17:09:24.738Z,93.70
2018-03-23T17:11:53.161Z,94.00
2018-03-23T17:14:22.245Z,94.80
2018-03-23T17:16:50.615Z,94.80
2018-03-23T17:19:18.945Z,95.30
2018-03-23T17:21:47.347Z,95.70
2018-03-23T17:24:15.772Z,96.10
2018-03-23T17:26:44.987Z,96.50
2018-03-23T17:29:14.219Z,97.50
2018-03-23T17:31:42.686Z,97.20
2018-03-23T17:34:11.810Z,98.10
2018-03-23T17:36:40.282Z,97.70
2018-03-23T17:39:08.655Z,98.00
2018-03-23T17:41:37.944Z,98.70
2018-03-23T17:44:06.297Z,98.70
2018-03-23T17:46:34.837Z,98.90
2018-03-23T17:49:03.274Z,99.10
2018-03-23T17:51:31.713Z,99.50
2018-03-23T17:54:00.117Z,99.90
2018-03-23T17:56:28.478Z,99.90
2018-03-23T17:58:56.792Z,99.90
2018-03-23T18:01:25.253Z,99.90
2018-03-23T18:03:53.699Z,99.90
2018-03-23T18:06:22.867Z,99.90
2018-03-23T18:08:51.192Z,99.90
2018-03-23T18:11:19.701Z,99.90
2018-03-23T18:13:48.243Z,99.90
2018-03-23T18:16:16.768Z,99.90
2018-03-23T18:18:45.237Z,99.90
2018-03-23T18:21:14.683Z,99.90
2018-03-23T18:23:43.783Z,99.90
2018-03-23T18:26:12.315Z,99.90
2018-03-23T18:28:41.660Z,99.90
2018-03-23T18:31:10.029Z,99.90
2018-03-23T18:33:39.367Z,99.90
2018-03-23T18:36:07.905Z,99.90
2018-03-23T18:38:36.269Z,99.90
2018-03-23T18:41:04.615Z,99.90
2018-03-23T18:43:33.035Z,99.90
2018-03-23T18:46:01.384Z,99.90
2018-03-23T18:48:29.830Z,99.90
2018-03-23T18:50:58.214Z,99.90
2018-03-23T18:53:26.542Z,99.90
2018-03-23T18:55:54.878Z,99.90
2018-03-23T18:58:23.270Z,99.90
2018-03-23T19:00:52.585Z,99.90
2018-03-23T19:03:21.154Z,99.90
2018-03-23T19:05:49.496Z,99.90
2018-03-23T19:08:18.049Z,99.90
2018-03-23T19:10:47.570Z,99.90
2018-03-23T19:13:16.904Z,99.90
2018-03-23T19:15:45.677Z,99.90
2018-03-23T19:18:14.271Z,99.90
2018-03-23T19:20:42.638Z,99.90
2018-03-23T19:23:10.966Z,99.90
2018-03-23T19:25:39.484Z,99.90
2018-03-23T19:28:08.076Z,99.90
2018-03-23T19:30:36.705Z,99.90
2018-03-23T19:33:05.255Z,99.90
2018-03-23T19:35:33.835Z,99.90
2018-03-23T19:38:02.436Z,99.90
2018-03-23T19:40:30.829Z,99.90
2018-03-23T19:42:59.201Z,99.90
2018-03-23T19:45:27.514Z,99.90
2018-03-23T19:47:56.045Z,99.90
2018-03-23T19:50:24.679Z,99.90
2018-03-23T19:52:53.242Z,99.90
2018-03-23T19:55:21.589Z,99.90
2018-03-23T19:57:50.149Z,99.90
2018-03-23T20:00:18.493Z,99.90
2018-03-23T20:02:47.929Z,99.90
2018-03-23T20:05:16.577Z,99.90
2018-03-23T20:07:45.109Z,99.90
2018-03-23T20:10:13.563Z,99.90
2018-03-23T20:12:42.790Z,99.90
2018-03-23T20:15:11.116Z,99.90
2018-03-23T20:17:45.076Z,99.90
2018-03-23T20:20:18.849Z,99.90
2018-03-23T20:22:47.200Z,99.90
2018-03-23T20:25:16.324Z,99.90
2018-03-23T20:27:50.331Z,99.90
2018-03-23T20:30:18.639Z,99.90
2018-03-23T20:32:47.703Z,99.90
2018-03-23T20:35:16.132Z,99.90
2018-03-23T20:37:44.477Z,99.90
2018-03-23T20:40:12.828Z,99.90
2018-03-23T20:42:41.164Z,99.90
2018-03-23T20:45:10.274Z,99.90
2018-03-23T20:47:39.531Z,99.90
2018-03-23T20:50:07.866Z,99.90
2018-03-23T20:52:37.105Z,99.90
2018-03-23T20:55:05.441Z,99.90
2018-03-23T20:57:34.647Z,99.90
2018-03-23T21:00:02.969Z,99.90
2018-03-23T21:02:31.286Z,99.90
2018-03-23T21:04:59.587Z,99.90
2018-03-23T21:07:28.763Z,99.90
2018-03-23T21:09:57.128Z,99.90
2018-03-23T21:12:25.660Z,99.90
2018-03-23T21:14:55.150Z,99.90
2018-03-23T21:17:24.243Z,99.90
2018-03-23T21:19:52.640Z,99.90
2018-03-23T21:22:21.854Z,99.90
2018-03-23T21:24:50.217Z,99.90
2018-03-23T21:27:18.731Z,99.90
2018-03-23T21:29:47.078Z,99.90
2018-03-23T21:32:15.415Z,99.90
2018-03-23T21:34:43.727Z,99.90
2018-03-23T21:37:12.102Z,99.90
2018-03-23T21:39:40.474Z,99.90
2018-03-23T21:42:08.802Z,99.90
2018-03-23T21:44:37.146Z,99.90
2018-03-23T21:47:05.476Z,99.90
2018-03-23T21:49:33.888Z,99.90
2018-03-23T21:52:02.194Z,99.90
2018-03-23T21:54:30.558Z,99.90
2018-03-23T21:56:58.894Z,99.90
2018-03-23T21:59:27.203Z,99.90
2018-03-23T22:01:56.277Z,99.90
2018-03-23T22:04:24.692Z,99.90
2018-03-23T22:06:53.817Z,99.90
2018-03-23T22:09:22.160Z,99.90
2018-03-23T22:11:51.298Z,99.90
2018-03-23T22:14:19.604Z,99.90
2018-03-23T22:16:47.944Z,99.90
2018-03-23T22:19:16.319Z,99.90
2018-03-23T22:21:45.470Z,99.90
2018-03-23T22:24:13.848Z,99.90
2018-03-23T22:26:42.945Z,99.90
2018-03-23T22:29:12.256Z,99.90
2018-03-23T22:31:40.609Z,99.90
2018-03-23T22:34:08.919Z,99.90
2018-03-23T22:36:37.252Z,99.90
2018-03-23T22:39:06.358Z,99.90
2018-03-23T22:41:35.428Z,99.90
2018-03-23T22:44:03.754Z,99.90
2018-03-23T22:46:32.071Z,99.90
2018-03-23T22:49:00.415Z,99.90
2018-03-23T22:51:28.817Z,99.90
2018-03-23T22:53:57.757Z,99.90
2018-03-23T22:56:26.093Z,99.90
2018-03-23T22:58:54.430Z,99.90
2018-03-23T23:01:23.570Z,99.90
2018-03-23T23:03:51.932Z,99.90
2018-03-23T23:06:21.052Z,99.90
2018-03-23T23:08:49.399Z,99.90
2018-03-23T23:11:18.515Z,99.90
2018-03-23T23:13:47.628Z,99.90
2018-03-23T23:16:15.923Z,99.90
2018-03-23T23:18:44.220Z,99.90
2018-03-23T23:21:12.530Z,99.90
2018-03-23T23:23:41.640Z,99.90
2018-03-23T23:26:10.749Z,99.90
2018-03-23T23:28:39.856Z,99.90
2018-03-23T23:31:08.941Z,99.90
2018-03-23T23:33:37.282Z,99.90
2018-03-23T23:36:05.602Z,99.90
2018-03-23T23:38:33.958Z,99.90
2018-03-23T23:41:02.291Z,99.90
2018-03-23T23:43:31.370Z,99.90
2018-03-23T23:45:59.699Z,99.90
2018-03-23T23:48:28.030Z,99.90
2018-03-23T23:50:56.360Z,99.90
2018-03-23T23:53:24.708Z,99.90
2018-03-23T23:55:53.806Z,99.90
2018-03-23T23:58:22.890Z,99.90
